createdAt,value
2022-09-30T00:02:25.684Z,0.00
2022-09-30T00:07:25.597Z,0.00
2022-09-30T00:12:25.527Z,0.00
2022-09-30T00:17:25.462Z,0.00
2022-09-30T00:22:25.383Z,0.00
2022-09-30T00:27:25.313Z,0.00
2022-09-30T00:32:25.273Z,0.00
2022-09-30T00:37:25.174Z,0.00
2022-09-30T00:42:25.291Z,0.00
2022-09-30T00:47:25.051Z,0.00
2022-09-30T00:52:24.971Z,0.00
2022-09-30T00:57:24.903Z,0.00
2022-09-30T01:02:24.879Z,0.00
2022-09-30T01:07:24.772Z,0.00
2022-09-30T01:12:24.707Z,0.00
2022-09-30T01:17:24.625Z,0.00
2022-09-30T01:22:24.585Z,0.00
2022-09-30T01:27:24.494Z,0.00
2022-09-30T01:32:24.445Z,0.00
2022-09-30T01:37:24.378Z,0.00
2022-09-30T01:42:24.328Z,0.00
2022-09-30T01:47:24.409Z,0.00
2022-09-30T01:52:24.201Z,0.00
2022-09-30T01:57:24.123Z,0.00
2022-09-30T02:02:24.095Z,0.00
2022-09-30T02:07:23.984Z,0.00
2022-09-30T02:12:23.940Z,0.00
2022-09-30T02:17:23.840Z,0.00
2022-09-30T02:22:23.792Z,0.00
2022-09-30T02:27:23.744Z,0.00
2022-09-30T02:32:23.642Z,0.00
2022-09-30T02:37:23.617Z,0.00
2022-09-30T02:42:23.528Z,0.00
2022-09-30T02:47:23.502Z,0.00
2022-09-30T02:52:23.561Z,0.00
2022-09-30T02:57:23.313Z,0.00
2022-09-30T03:02:23.384Z,0.00
2022-09-30T03:07:23.182Z,0.00
2022-09-30T03:12:23.093Z,0.00
2022-09-30T03:17:23.031Z,0.00
2022-09-30T03:22:22.963Z,0.00
2022-09-30T03:27:22.900Z,0.00
2022-09-30T03:32:22.877Z,0.00
2022-09-30T03:37:22.774Z,0.00
2022-09-30T03:42:23.216Z,0.00
2022-09-30T03:47:22.697Z,0.00
2022-09-30T03:52:22.602Z,0.00
2022-09-30T03:57:22.587Z,0.00
2022-09-30T04:02:22.559Z,0.00
2022-09-30T04:07:22.415Z,0.00
2022-09-30T04:12:22.361Z,0.00
2022-09-30T04:17:22.288Z,0.00
2022-09-30T04:22:26.238Z,0.00
2022-09-30T04:27:22.169Z,0.00
2022-09-30T04:32:22.089Z,0.00
2022-09-30T04:37:22.071Z,0.00
2022-09-30T04:42:21.988Z,0.00
2022-09-30T04:47:21.918Z,0.00
2022-09-30T04:52:21.840Z,5.62
2022-09-30T04:57:21.776Z,11.25
2022-09-30T05:02:21.755Z,16.88
2022-09-30T05:07:21.645Z,22.50
2022-09-30T05:12:21.600Z,33.75
2022-09-30T05:17:21.544Z,45.00
2022-09-30T05:22:21.440Z,56.25
2022-09-30T05:27:21.396Z,67.50
2022-09-30T05:32:21.329Z,78.75
2022-09-30T05:37:21.251Z,101.25
2022-09-30T05:42:21.169Z,123.75
2022-09-30T05:47:21.150Z,151.88
2022-09-30T05:52:21.048Z,196.88
2022-09-30T05:57:21.226Z,163.12
2022-09-30T06:02:20.986Z,163.12
2022-09-30T06:07:20.849Z,208.12
2022-09-30T06:12:20.777Z,270.00
2022-09-30T06:17:20.708Z,281.25
2022-09-30T06:22:20.641Z,343.12
2022-09-30T06:27:20.566Z,405.00
2022-09-30T06:32:20.554Z,433.12
2022-09-30T06:37:20.567Z,393.75
2022-09-30T06:42:20.377Z,489.38
2022-09-30T06:47:25.164Z,652.50
2022-09-30T06:52:21.305Z,765.00
2022-09-30T06:57:20.187Z,703.12
2022-09-30T07:02:20.249Z,776.25
2022-09-30T07:07:20.118Z,950.62
2022-09-30T07:12:20.204Z,1108.12
2022-09-30T07:17:19.929Z,1068.75
2022-09-30T07:22:19.854Z,1507.50
2022-09-30T07:27:19.811Z,793.12
2022-09-30T07:32:19.780Z,967.50
2022-09-30T07:37:19.675Z,871.88
2022-09-30T07:42:22.523Z,883.12
2022-09-30T07:47:19.560Z,770.62
2022-09-30T07:52:19.450Z,759.38
2022-09-30T07:57:19.402Z,849.38
2022-09-30T08:02:19.410Z,607.50
2022-09-30T08:07:19.300Z,646.88
2022-09-30T08:12:19.199Z,691.88
2022-09-30T08:17:19.302Z,731.25
2022-09-30T08:22:19.087Z,1209.38
2022-09-30T08:27:19.101Z,871.88
2022-09-30T08:32:19.010Z,883.12
2022-09-30T08:37:18.871Z,821.25
2022-09-30T08:42:36.074Z,888.75
2022-09-30T08:47:19.728Z,928.12
2022-09-30T08:52:30.198Z,945.00
2022-09-30T08:57:19.751Z,860.62
2022-09-30T09:02:18.579Z,776.25
2022-09-30T09:07:18.460Z,596.25
2022-09-30T09:12:18.454Z,613.12
2022-09-30T09:17:18.405Z,832.50
2022-09-30T09:22:22.450Z,736.88
2022-09-30T09:27:19.353Z,720.00
2022-09-30T09:32:18.153Z,635.62
2022-09-30T09:37:18.145Z,489.38
2022-09-30T09:42:18.051Z,489.38
2022-09-30T09:47:18.046Z,489.38
2022-09-30T09:52:17.900Z,489.38
2022-09-30T09:57:17.834Z,472.50
2022-09-30T10:02:17.835Z,483.75
2022-09-30T10:07:17.709Z,466.88
2022-09-30T10:12:17.647Z,450.00
2022-09-30T10:17:17.628Z,455.62
2022-09-30T10:22:17.521Z,444.38
2022-09-30T10:27:17.644Z,427.50
2022-09-30T10:32:17.401Z,416.25
2022-09-30T10:37:17.301Z,421.88
2022-09-30T10:42:17.436Z,416.25
2022-09-30T10:47:17.184Z,427.50
2022-09-30T10:52:17.104Z,427.50
2022-09-30T10:57:17.041Z,421.88
2022-09-30T11:02:17.040Z,438.75
2022-09-30T11:07:17.202Z,433.12
2022-09-30T11:12:16.857Z,421.88
2022-09-30T11:17:20.502Z,433.12
2022-09-30T11:22:17.734Z,427.50
2022-09-30T11:27:16.971Z,421.88
2022-09-30T11:32:16.648Z,416.25
2022-09-30T11:37:16.532Z,427.50
2022-09-30T11:42:16.432Z,416.25
2022-09-30T11:47:16.398Z,416.25
2022-09-30T11:52:16.339Z,410.62
2022-09-30T11:57:16.239Z,399.38
2022-09-30T12:02:16.218Z,376.88
2022-09-30T12:07:16.129Z,382.50
2022-09-30T12:12:16.943Z,376.88
2022-09-30T12:17:15.977Z,376.88
2022-09-30T12:22:15.901Z,376.88
2022-09-30T12:27:15.822Z,376.88
2022-09-30T12:32:15.812Z,292.50
2022-09-30T12:37:15.859Z,270.00
2022-09-30T12:42:15.642Z,388.12
2022-09-30T12:47:15.572Z,399.38
2022-09-30T12:52:15.492Z,360.00
2022-09-30T12:57:15.435Z,466.88
2022-09-30T13:02:15.437Z,495.00
2022-09-30T13:07:15.295Z,427.50
2022-09-30T13:12:15.252Z,461.25
2022-09-30T13:17:15.197Z,489.38
2022-09-30T13:22:15.115Z,450.00
2022-09-30T13:27:15.020Z,399.38
2022-09-30T13:32:14.962Z,399.38
2022-09-30T13:37:14.899Z,354.38
2022-09-30T13:42:15.061Z,360.00
2022-09-30T13:47:14.788Z,371.25
2022-09-30T13:52:16.627Z,354.38
2022-09-30T13:57:14.661Z,331.88
2022-09-30T14:02:17.022Z,298.12
2022-09-30T14:07:14.530Z,315.00
2022-09-30T14:12:14.462Z,270.00
2022-09-30T14:17:14.419Z,253.12
2022-09-30T14:22:14.383Z,286.88
2022-09-30T14:27:14.252Z,286.88
2022-09-30T14:32:14.272Z,281.25
2022-09-30T14:37:17.772Z,286.88
2022-09-30T14:42:14.086Z,264.38
2022-09-30T14:47:14.187Z,264.38
2022-09-30T14:52:13.913Z,241.88
2022-09-30T14:57:13.874Z,219.38
2022-09-30T15:02:13.835Z,236.25
2022-09-30T15:07:13.726Z,202.50
2022-09-30T15:12:13.661Z,191.25
2022-09-30T15:17:13.589Z,174.38
2022-09-30T15:22:13.527Z,157.50
2022-09-30T15:27:15.515Z,135.00
2022-09-30T15:32:13.452Z,140.62
2022-09-30T15:37:13.316Z,163.12
2022-09-30T15:42:13.429Z,163.12
2022-09-30T15:47:13.187Z,135.00
2022-09-30T15:52:13.453Z,90.00
2022-09-30T15:57:13.050Z,73.12
2022-09-30T16:02:12.999Z,56.25
2022-09-30T16:07:12.932Z,67.50
2022-09-30T16:12:12.890Z,78.75
2022-09-30T16:17:12.810Z,61.88
2022-09-30T16:22:12.760Z,50.62
2022-09-30T16:27:12.680Z,39.38
2022-09-30T16:32:12.617Z,28.12
2022-09-30T16:37:12.553Z,22.50
2022-09-30T16:42:12.493Z,16.88
2022-09-30T16:47:12.488Z,11.25
2022-09-30T16:52:12.357Z,5.62
2022-09-30T16:57:12.293Z,0.00
2022-09-30T17:02:12.270Z,0.00
2022-09-30T17:07:12.193Z,0.00
2022-09-30T17:12:12.122Z,0.00
2022-09-30T17:17:13.772Z,0.00
2022-09-30T17:22:12.016Z,0.00
2022-09-30T17:27:11.869Z,0.00
2022-09-30T17:32:11.896Z,0.00
2022-09-30T17:37:11.781Z,0.00
2022-09-30T17:42:11.674Z,0.00
2022-09-30T17:47:11.622Z,0.00
2022-09-30T17:52:11.570Z,0.00
2022-09-30T17:57:11.524Z,0.00
2022-09-30T18:02:11.643Z,0.00
2022-09-30T18:07:11.357Z,0.00
2022-09-30T18:12:11.288Z,0.00
2022-09-30T18:17:11.224Z,0.00
2022-09-30T18:22:11.176Z,0.00
2022-09-30T18:27:11.099Z,0.00
2022-09-30T18:32:11.103Z,0.00
2022-09-30T18:37:11.016Z,0.00
2022-09-30T18:42:10.907Z,0.00
2022-09-30T18:47:10.845Z,0.00
2022-09-30T18:52:10.786Z,0.00
2022-09-30T18:57:10.698Z,0.00
2022-09-30T19:02:10.689Z,0.00
2022-09-30T19:07:10.765Z,0.00
2022-09-30T19:12:10.517Z,0.00
2022-09-30T19:17:10.421Z,0.00
2022-09-30T19:22:10.741Z,0.00
2022-09-30T19:27:10.315Z,0.00
2022-09-30T19:32:10.489Z,0.00
2022-09-30T19:37:23.708Z,0.00
2022-09-30T19:42:11.134Z,0.00
2022-09-30T19:47:10.072Z,0.00
2022-09-30T19:52:19.513Z,0.00
2022-09-30T19:57:10.936Z,0.00
2022-09-30T20:02:09.897Z,0.00
2022-09-30T20:07:09.799Z,0.00
2022-09-30T20:12:09.939Z,0.00
2022-09-30T20:17:09.669Z,0.00
2022-09-30T20:22:09.606Z,0.00
2022-09-30T20:27:09.558Z,0.00
2022-09-30T20:32:09.595Z,0.00
2022-09-30T20:37:09.383Z,0.00
2022-09-30T20:42:09.339Z,0.00
2022-09-30T20:47:09.290Z,0.00
2022-09-30T20:52:09.188Z,0.00
2022-09-30T20:57:09.172Z,0.00
2022-09-30T21:02:09.130Z,0.00
2022-09-30T21:07:08.984Z,0.00
2022-09-30T21:12:13.627Z,0.00
2022-09-30T21:17:10.019Z,0.00
2022-09-30T21:22:08.857Z,0.00
2022-09-30T21:27:08.741Z,0.00
2022-09-30T21:32:09.434Z,0.00
2022-09-30T21:37:08.577Z,0.00
2022-09-30T21:42:08.527Z,0.00
2022-09-30T21:47:17.663Z,0.00
2022-09-30T21:52:08.346Z,0.00
2022-09-30T21:57:08.293Z,0.00
2022-09-30T22:02:08.409Z,0.00
2022-09-30T22:07:08.180Z,0.00
2022-09-30T22:12:08.114Z,0.00
2022-09-30T22:17:08.034Z,0.00
2022-09-30T22:22:08.145Z,0.00
2022-09-30T22:27:07.920Z,0.00
2022-09-30T22:32:07.921Z,0.00
2022-09-30T22:37:07.776Z,0.00
2022-09-30T22:42:07.766Z,0.00
2022-09-30T22:47:07.645Z,0.00
2022-09-30T22:52:07.619Z,0.00
2022-09-30T22:57:07.536Z,0.00
2022-09-30T23:02:07.507Z,0.00
2022-09-30T23:07:07.409Z,0.00
2022-09-30T23:12:07.382Z,0.00
2022-09-30T23:17:07.262Z,0.00
2022-09-30T23:22:07.232Z,0.00
2022-09-30T23:27:07.342Z,0.00
2022-09-30T23:32:07.131Z,0.00
2022-09-30T23:37:07.028Z,0.00
2022-09-30T23:42:06.938Z,0.00
2022-09-30T23:47:06.900Z,0.00
2022-09-30T23:52:10.472Z,0.00
2022-09-30T23:57:07.820Z,0.00
